Time;durP1;ratioP1;P1;durP2;ratioP2;P2;SDS_P1;SDS_P2;PMS_P1;PMS_P2;Temp;Humidity;BMP_temperature;BMP_pressure;BME280_temperature;BME280_humidity;BME280_pressure;Samples;Min_cycle;Max_cycle;Signal;HPM_P1;HPM_P2
2024/02/16 00:00:25;;;;;;;52.60;35.00;;;;;;;10.23;91.56;101561.38;105108;1258;65094;-59
2024/02/16 00:03:12;;;;;;;54.20;37.20;;;;;;;10.20;91.47;101561.48;104926;1259;138801;-59
2024/02/16 00:05:39;;;;;;;52.10;33.40;;;;;;;10.17;91.49;101562.21;105961;1254;60485;-60
2024/02/16 00:08:06;;;;;;;50.90;33.40;;;;;;;10.16;91.50;101564.30;105002;1254;60550;-60
2024/02/16 00:10:33;;;;;;;50.40;32.90;;;;;;;10.16;91.65;101563.75;107302;1254;139369;-59
2024/02/16 00:13:02;;;;;;;49.20;32.60;;;;;;;10.14;91.65;101560.36;108751;1254;67205;-59
2024/02/16 00:15:29;;;;;;;46.00;32.30;;;;;;;10.15;91.80;101564.25;104826;1259;139472;-60
2024/02/16 00:17:56;;;;;;;42.90;31.10;;;;;;;10.15;91.78;101561.79;104678;1254;60421;-59
2024/02/16 00:20:24;;;;;;;46.90;32.40;;;;;;;10.15;91.79;101558.27;104915;1256;60460;-59
2024/02/16 00:22:51;;;;;;;42.80;30.90;;;;;;;10.16;91.81;101556.04;108618;1254;139230;-59
2024/02/16 00:25:18;;;;;;;47.10;32.10;;;;;;;10.16;91.87;101554.11;105099;1259;66648;-60
2024/02/16 00:27:45;;;;;;;47.70;31.70;;;;;;;10.18;91.95;101561.74;105059;1259;139144;-60
2024/02/16 00:30:12;;;;;;;46.20;31.40;;;;;;;10.18;91.97;101561.73;105007;1259;60485;-60
2024/02/16 00:32:38;;;;;;;44.00;30.70;;;;;;;10.19;92.11;101562.13;105079;1254;60490;-58
2024/02/16 00:35:06;;;;;;;46.70;30.80;;;;;;;10.21;92.12;101563.27;104981;1259;139084;-60
2024/02/16 00:37:32;;;;;;;44.20;30.80;;;;;;;10.22;92.09;101566.10;104823;1254;65858;-60
2024/02/16 00:39:59;;;;;;;42.30;29.80;;;;;;;10.20;92.00;101567.78;104624;1259;138943;-60
2024/02/16 00:42:28;;;;;;;42.80;29.50;;;;;;;10.20;92.03;101564.47;104793;1260;60519;-60
2024/02/16 00:44:54;;;;;;;47.10;29.50;;;;;;;10.19;92.09;101563.38;104765;1259;139198;-64
2024/02/16 00:47:23;;;;;;;42.30;28.40;;;;;;;10.19;92.04;101559.84;105156;1254;73240;-67
2024/02/16 00:49:50;;;;;;;46.50;30.30;;;;;;;10.18;92.08;101556.47;104938;1259;66256;-67
2024/02/16 00:52:17;;;;;;;45.30;29.20;;;;;;;10.18;92.16;101556.13;104561;1259;140007;-69
2024/02/16 00:54:44;;;;;;;44.80;30.90;;;;;;;10.18;92.27;101557.52;104615;1259;60466;-69
2024/02/16 00:57:10;;;;;;;47.10;31.90;;;;;;;10.18;92.19;101559.64;104574;1254;138833;-68
2024/02/16 00:59:37;;;;;;;44.10;29.60;;;;;;;10.18;92.29;101557.02;104846;1258;76346;-68
2024/02/16 01:02:04;;;;;;;46.30;31.10;;;;;;;10.18;92.31;101556.82;104995;1259;67703;-68
2024/02/16 01:04:31;;;;;;;47.30;30.10;;;;;;;10.15;92.17;101556.55;104682;1254;139542;-68
2024/02/16 01:06:58;;;;;;;45.30;30.10;;;;;;;10.16;92.39;101554.29;104806;1259;60369;-67
2024/02/16 01:09:26;;;;;;;44.70;30.50;;;;;;;10.19;92.57;101555.98;104585;1258;138991;-67
2024/02/16 01:11:53;;;;;;;46.70;31.80;;;;;;;10.20;92.53;101548.12;104804;1259;73018;-68
2024/02/16 01:14:20;;;;;;;48.60;32.10;;;;;;;10.21;92.42;101549.95;105086;1258;67289;-67
2024/02/16 01:16:47;;;;;;;46.90;31.10;;;;;;;10.23;92.56;101551.73;104960;1259;139356;-67
2024/02/16 01:19:13;;;;;;;47.00;30.90;;;;;;;10.23;92.58;101549.51;104890;1254;60600;-67
2024/02/16 01:21:41;;;;;;;48.30;31.90;;;;;;;10.25;92.53;101548.86;104652;1254;138901;-67
2024/02/16 01:24:08;;;;;;;48.40;31.70;;;;;;;10.28;92.63;101545.80;104687;1258;73149;-67
2024/02/16 01:26:35;;;;;;;46.10;30.30;;;;;;;10.29;92.53;101548.86;104723;1259;66582;-67
2024/02/16 01:29:03;;;;;;;49.30;31.90;;;;;;;10.29;92.48;101546.91;107402;1254;138620;-67
2024/02/16 01:31:30;;;;;;;50.70;32.70;;;;;;;10.31;92.56;101546.69;105104;1259;60796;-64
2024/02/16 01:33:56;;;;;;;54.70;33.50;;;;;;;10.32;92.48;101543.73;104954;1255;139383;-66
2024/02/16 01:36:23;;;;;;;48.20;32.40;;;;;;;10.31;92.47;101541.24;105007;1254;73271;-67
2024/02/16 01:38:50;;;;;;;50.00;33.30;;;;;;;10.31;92.43;101539.11;105021;1259;66769;-68
2024/02/16 01:41:16;;;;;;;50.00;33.10;;;;;;;10.31;92.48;101536.15;104572;1259;138775;-67
2024/02/16 01:43:44;;;;;;;48.00;31.70;;;;;;;10.30;92.49;101533.27;104656;1254;60481;-68
2024/02/16 01:46:10;;;;;;;48.10;32.90;;;;;;;10.28;92.53;101530.74;104571;1259;138867;-68
2024/02/16 01:48:39;;;;;;;46.70;32.10;;;;;;;10.28;92.42;101524.27;104837;1258;72774;-68
2024/02/16 01:51:07;;;;;;;53.20;35.10;;;;;;;10.29;92.58;101520.41;105090;1257;138875;-67
2024/02/16 01:53:36;;;;;;;53.30;34.60;;;;;;;10.29;92.61;101516.94;105128;1256;73126;-68
2024/02/16 01:56:03;;;;;;;51.70;33.50;;;;;;;10.29;92.52;101512.70;109207;1254;58586;-67
2024/02/16 01:58:29;;;;;;;52.70;34.10;;;;;;;10.26;92.51;101507.86;106136;1254;138950;-67
2024/02/16 02:00:56;;;;;;;50.80;33.10;;;;;;;10.23;92.38;101509.14;105054;1259;74480;-67
2024/02/16 02:03:23;;;;;;;53.20;35.50;;;;;;;10.21;92.39;101508.56;104856;1259;138850;-67
2024/02/16 02:05:50;;;;;;;54.10;35.30;;;;;;;10.22;92.60;101512.27;105002;1254;73853;-67
2024/02/16 02:08:17;;;;;;;52.00;34.40;;;;;;;10.23;92.61;101513.52;108730;1254;60640;-67
2024/02/16 02:10:44;;;;;;;50.70;33.80;;;;;;;10.25;92.78;101509.77;108660;1254;138668;-59
2024/02/16 02:13:11;;;;;;;49.80;32.40;;;;;;;10.27;92.72;101508.41;105427;1256;72781;-60
2024/02/16 02:15:37;;;;;;;45.90;33.00;;;;;;;10.27;92.55;101507.02;104784;1257;139412;-60
2024/02/16 02:18:04;;;;;;;49.30;33.30;;;;;;;10.27;92.61;101507.91;105112;1258;73331;-60
2024/02/16 02:20:31;;;;;;;51.10;33.30;;;;;;;10.27;92.51;101501.41;104860;1259;60513;-60
2024/02/16 02:22:58;;;;;;;52.40;34.30;;;;;;;10.27;92.39;101501.39;104780;1259;140500;-60
2024/02/16 02:25:26;;;;;;;49.60;34.50;;;;;;;10.26;92.46;101505.05;104709;1254;72956;-59
2024/02/16 02:27:53;;;;;;;53.60;36.50;;;;;;;10.28;92.57;101508.98;104731;1259;140325;-60
2024/02/16 02:30:20;;;;;;;52.40;36.00;;;;;;;10.30;92.58;101506.27;105150;1259;72986;-61
2024/02/16 02:32:48;;;;;;;54.60;36.20;;;;;;;10.32;92.68;101505.49;105017;1258;61131;-59
2024/02/16 02:35:16;;;;;;;51.30;35.30;;;;;;;10.33;92.47;101502.86;104994;1257;139209;-60
2024/02/16 02:37:43;;;;;;;60.90;38.90;;;;;;;10.33;92.53;101500.27;105114;1254;74361;-60
2024/02/16 02:40:10;;;;;;;55.10;36.60;;;;;;;10.34;92.51;101489.77;104608;1257;139707;-59
2024/02/16 02:42:37;;;;;;;57.10;39.60;;;;;;;10.34;92.56;101489.58;107232;1256;72698;-59
2024/02/16 02:45:05;;;;;;;59.50;40.20;;;;;;;10.36;92.68;101485.98;104711;1259;139705;-60
2024/02/16 02:47:32;;;;;;;63.90;40.60;;;;;;;10.38;92.79;101489.19;105111;1254;61361;-59
2024/02/16 02:49:59;;;;;;;60.40;41.80;;;;;;;10.38;92.62;101486.91;104779;1259;75192;-59
2024/02/16 02:52:29;;;;;;;60.00;40.70;;;;;;;10.38;92.72;101488.31;104710;1254;138804;-60
2024/02/16 02:54:55;;;;;;;57.70;38.60;;;;;;;10.37;92.63;101487.08;107385;1254;72397;-60
2024/02/16 02:57:22;;;;;;;61.90;41.10;;;;;;;10.36;92.57;101486.85;104765;1258;139479;-61
2024/02/16 02:59:49;;;;;;;61.80;42.50;;;;;;;10.33;92.56;101481.31;105112;1258;61135;-66
2024/02/16 03:02:16;;;;;;;61.00;42.80;;;;;;;10.35;92.73;101485.95;105181;1254;74934;-68
2024/02/16 03:04:42;;;;;;;64.00;42.40;;;;;;;10.35;92.76;101483.84;104842;1257;138840;-66
2024/02/16 03:07:09;;;;;;;64.40;43.70;;;;;;;10.37;92.84;101484.96;104890;1258;70683;-67
2024/02/16 03:09:36;;;;;;;61.40;41.60;;;;;;;10.36;92.78;101482.80;104612;1257;139809;-67
2024/02/16 03:12:03;;;;;;;60.00;42.10;;;;;;;10.35;92.83;101482.78;104815;1257;61279;-67
2024/02/16 03:14:31;;;;;;;64.10;43.20;;;;;;;10.35;92.89;101484.02;104977;1257;74818;-67
2024/02/16 03:16:58;;;;;;;60.60;43.60;;;;;;;10.36;92.90;101482.99;105032;1257;139018;-67
2024/02/16 03:19:24;;;;;;;63.40;43.00;;;;;;;10.37;92.92;101480.73;104937;1258;72190;-67
2024/02/16 03:21:51;;;;;;;62.90;43.70;;;;;;;10.37;92.90;101481.61;104744;1258;139307;-67
2024/02/16 03:24:18;;;;;;;62.70;43.60;;;;;;;10.36;92.81;101479.81;104763;1257;61476;-67
2024/02/16 03:26:45;;;;;;;64.30;44.60;;;;;;;10.34;92.78;101482.39;104787;1254;73363;-65
2024/02/16 03:29:12;;;;;;;65.20;44.80;;;;;;;10.33;92.81;101480.44;104887;1254;138564;-66
2024/02/16 03:31:38;;;;;;;60.20;43.40;;;;;;;10.32;92.88;101480.59;104997;1254;71941;-67
2024/02/16 03:34:05;;;;;;;64.90;44.70;;;;;;;10.33;93.07;101481.67;104995;1258;138901;-67
2024/02/16 03:36:32;;;;;;;64.70;44.90;;;;;;;10.35;93.02;101483.48;104960;1254;61250;-66
2024/02/16 03:38:59;;;;;;;68.40;45.60;;;;;;;10.35;92.98;101485.23;104752;1258;139050;-66
2024/02/16 03:41:26;;;;;;;66.40;45.60;;;;;;;10.34;92.91;101486.79;104881;1257;67318;-67
2024/02/16 03:43:53;;;;;;;66.90;45.50;;;;;;;10.35;93.10;101485.44;104776;1257;72968;-67
2024/02/16 03:46:20;;;;;;;67.50;46.90;;;;;;;10.37;93.12;101486.52;104769;1259;138985;-67
2024/02/16 03:48:47;;;;;;;68.40;45.10;;;;;;;10.39;93.19;101488.89;105109;1259;61242;-67
2024/02/16 03:51:14;;;;;;;69.90;47.00;;;;;;;10.39;93.08;101492.95;104624;1255;139240;-68
2024/02/16 03:53:40;;;;;;;74.20;49.00;;;;;;;10.39;93.14;101487.31;104765;1254;66014;-66
2024/02/16 03:56:07;;;;;;;72.60;47.20;;;;;;;10.40;93.03;101489.14;104693;1259;73648;-67
2024/02/16 03:58:36;;;;;;;68.40;48.00;;;;;;;10.42;93.20;101488.65;104661;1258;139048;-66
2024/02/16 04:01:02;;;;;;;67.50;47.50;;;;;;;10.42;93.15;101489.73;106361;1254;61428;-67
2024/02/16 04:03:29;;;;;;;76.10;48.90;;;;;;;10.43;93.07;101489.42;104988;1254;139584;-67
2024/02/16 04:05:56;;;;;;;70.20;49.20;;;;;;;10.44;93.18;101492.45;105047;1259;67220;-68
2024/02/16 04:08:22;;;;;;;74.50;49.20;;;;;;;10.45;93.12;101493.17;105033;1259;73377;-65
2024/02/16 04:10:49;;;;;;;72.70;50.30;;;;;;;10.46;93.15;101492.52;104756;1259;139507;-67
2024/02/16 04:13:16;;;;;;;76.00;49.40;;;;;;;10.45;93.07;101487.54;104806;1259;61315;-67
2024/02/16 04:15:43;;;;;;;79.10;52.60;;;;;;;10.47;93.10;101487.97;104481;1254;140378;-66
2024/02/16 04:18:09;;;;;;;76.20;52.00;;;;;;;10.47;93.04;101485.67;104782;1258;66735;-59
2024/02/16 04:20:37;;;;;;;74.00;50.10;;;;;;;10.47;93.17;101487.97;105028;1254;71199;-60
2024/02/16 04:23:04;;;;;;;72.90;51.00;;;;;;;10.47;92.96;101487.09;104932;1258;138796;-60
2024/02/16 04:25:31;;;;;;;78.90;52.50;;;;;;;10.45;92.89;101486.15;105039;1259;61388;-60
2024/02/16 04:27:57;;;;;;;74.70;51.30;;;;;;;10.44;92.98;101485.24;104744;1255;138867;-59
2024/02/16 04:30:24;;;;;;;75.50;51.70;;;;;;;10.42;92.85;101482.69;105012;1259;64047;-59
2024/02/16 04:32:51;;;;;;;72.20;51.20;;;;;;;10.40;92.90;101483.15;105116;1259;71014;-59
2024/02/16 04:35:17;;;;;;;69.30;49.30;;;;;;;10.36;92.87;101472.83;105167;1259;139744;-59
2024/02/16 04:37:44;;;;;;;72.80;49.20;;;;;;;10.34;92.90;101473.43;105030;1259;61333;-59
2024/02/16 04:40:15;;;;;;;70.50;51.60;;;;;;;10.31;92.84;101473.52;104860;1258;138859;-60
2024/02/16 04:42:42;;;;;;;79.20;56.60;;;;;;;10.26;92.73;101472.09;108321;1256;65074;-60
2024/02/16 04:45:12;;;;;;;78.50;54.60;;;;;;;10.26;92.82;101475.74;104730;1258;138944;-66
2024/02/16 04:47:40;;;;;;;71.30;51.40;;;;;;;10.24;92.79;101473.56;105101;1257;61288;-66
2024/02/16 04:50:10;;;;;;;68.20;51.80;;;;;;;10.22;92.83;101468.22;105021;1254;60190;-67
2024/02/16 04:52:38;;;;;;;71.10;50.80;;;;;;;10.18;92.73;101469.48;107589;1256;139394;-67
2024/02/16 04:55:06;;;;;;;69.90;48.00;;;;;;;10.12;92.56;101474.16;104698;1259;67859;-66
2024/02/16 04:57:33;;;;;;;66.50;46.90;;;;;;;10.07;92.66;101471.54;104785;1259;139322;-66
2024/02/16 05:00:00;;;;;;;64.20;46.30;;;;;;;10.06;92.86;101473.75;105105;1259;61243;-66
2024/02/16 05:02:28;;;;;;;64.70;47.50;;;;;;;10.07;93.01;101474.34;106891;1259;61299;-67
2024/02/16 05:04:55;;;;;;;65.30;45.50;;;;;;;10.09;93.08;101469.15;105943;1255;139504;-66
2024/02/16 05:07:22;;;;;;;65.00;45.70;;;;;;;10.09;93.09;101468.80;104962;1257;66427;-66
2024/02/16 05:09:49;;;;;;;63.20;45.50;;;;;;;10.09;93.17;101469.15;104727;1258;139719;-66
2024/02/16 05:12:18;;;;;;;68.60;49.60;;;;;;;10.09;93.10;101472.30;108650;1257;61206;-67
2024/02/16 05:14:48;;;;;;;65.30;46.90;;;;;;;10.07;92.96;101469.08;107398;1255;61272;-66
2024/02/16 05:17:15;;;;;;;69.20;47.70;;;;;;;10.04;92.83;101468.80;104968;1258;138581;-65
2024/02/16 05:19:42;;;;;;;68.00;46.60;;;;;;;9.99;92.52;101468.44;104914;1257;66858;-65
2024/02/16 05:22:09;;;;;;;68.40;47.80;;;;;;;9.95;92.57;101468.95;104766;1257;138908;-65
2024/02/16 05:24:37;;;;;;;66.20;48.60;;;;;;;9.92;92.76;101467.77;107073;1254;61545;-66
2024/02/16 05:27:04;;;;;;;70.70;49.70;;;;;;;9.92;92.90;101467.43;105856;1258;139571;-65
2024/02/16 05:29:31;;;;;;;62.70;48.20;;;;;;;9.93;93.08;101469.39;105465;1258;74370;-67
2024/02/16 05:31:58;;;;;;;65.00;49.80;;;;;;;9.94;93.00;101467.52;105157;1259;66001;-66
2024/02/16 05:34:25;;;;;;;69.50;49.10;;;;;;;9.94;92.99;101464.70;105040;1257;138855;-66
2024/02/16 05:36:52;;;;;;;66.40;48.10;;;;;;;9.94;92.96;101464.35;105204;1255;61340;-67
2024/02/16 05:39:26;;;;;;;62.80;47.90;;;;;;;9.93;92.99;101461.15;105076;1259;139093;-67
2024/02/16 05:41:53;;;;;;;66.70;48.00;;;;;;;9.91;92.95;101459.88;105061;1257;74849;-66
2024/02/16 05:44:21;;;;;;;70.90;50.80;;;;;;;9.92;93.04;101464.63;105966;1258;67293;-67
2024/02/16 05:46:48;;;;;;;65.50;48.80;;;;;;;9.91;93.01;101468.48;104984;1257;138840;-66
2024/02/16 05:49:18;;;;;;;66.10;49.80;;;;;;;9.91;92.96;101473.70;105150;1257;61480;-66
2024/02/16 05:52:17;;;;;;;64.70;49.20;;;;;;;9.93;93.20;101474.31;105087;1254;139603;-67
2024/02/16 05:54:31;;;;;;;63.70;47.70;;;;;;;9.96;93.18;101477.58;105152;1255;75658;-66
2024/02/16 05:56:58;;;;;;;67.70;47.40;;;;;;;9.96;93.11;101476.71;105025;1259;139242;-65
2024/02/16 05:59:26;;;;;;;59.30;46.50;;;;;;;9.98;93.17;101480.48;105184;1257;72226;-71
2024/02/16 06:01:53;;;;;;;60.90;46.50;;;;;;;10.01;93.18;101483.02;105291;1262;61279;-67
2024/02/16 06:04:20;;;;;;;59.90;44.20;;;;;;;10.03;93.09;101486.45;105022;1255;139632;-65
2024/02/16 06:06:48;;;;;;;61.60;45.30;;;;;;;10.02;93.05;101483.77;105214;1258;75179;-65
2024/02/16 06:09:15;;;;;;;65.60;46.20;;;;;;;10.01;93.01;101484.64;105093;1257;139137;-65
2024/02/16 06:11:42;;;;;;;65.10;45.90;;;;;;;10.02;93.02;101488.67;105189;1258;72037;-66
2024/02/16 06:14:08;;;;;;;59.50;43.70;;;;;;;10.01;92.88;101487.42;105200;1256;61212;-66
2024/02/16 06:16:35;;;;;;;61.20;44.10;;;;;;;10.02;93.01;101486.79;105024;1257;138897;-66
2024/02/16 06:19:02;;;;;;;63.40;44.80;;;;;;;10.03;93.03;101488.02;105153;1259;75262;-66
2024/02/16 06:21:29;;;;;;;63.90;43.00;;;;;;;10.02;92.89;101485.70;105033;1258;139350;-65
2024/02/16 06:23:55;;;;;;;59.90;43.80;;;;;;;10.02;92.81;101485.03;105129;1257;73776;-65
2024/02/16 06:26:22;;;;;;;55.90;42.00;;;;;;;10.04;92.88;101487.88;105122;1254;61286;-65
2024/02/16 06:28:49;;;;;;;56.10;42.20;;;;;;;10.05;92.92;101488.45;105041;1257;138983;-66
2024/02/16 06:31:16;;;;;;;57.40;42.20;;;;;;;10.08;92.92;101490.00;104931;1257;74360;-65
2024/02/16 06:33:43;;;;;;;51.30;39.60;;;;;;;10.09;92.79;101495.61;105052;1259;138968;-65
2024/02/16 06:36:09;;;;;;;51.90;39.80;;;;;;;10.09;92.62;101498.10;109183;1254;72971;-65
2024/02/16 06:38:37;;;;;;;52.90;39.70;;;;;;;10.10;92.63;101491.63;109177;1256;59048;-65
2024/02/16 06:41:04;;;;;;;53.20;39.80;;;;;;;10.12;92.61;101489.58;105407;1258;138727;-65
2024/02/16 06:43:31;;;;;;;53.70;39.60;;;;;;;10.14;92.61;101491.42;105153;1257;73704;-66
2024/02/16 06:45:58;;;;;;;53.40;38.90;;;;;;;10.15;92.39;101492.51;105052;1258;138679;-65
2024/02/16 06:48:25;;;;;;;51.80;38.80;;;;;;;10.15;92.31;101493.91;104942;1257;71866;-66
2024/02/16 06:50:51;;;;;;;52.80;39.10;;;;;;;10.17;92.43;101489.61;105039;1257;61375;-66
2024/02/16 06:53:18;;;;;;;56.00;40.30;;;;;;;10.21;92.44;101487.84;104859;1255;139172;-67
2024/02/16 06:55:45;;;;;;;54.00;41.50;;;;;;;10.22;92.26;101491.39;105039;1256;73690;-65
2024/02/16 06:58:11;;;;;;;56.70;41.60;;;;;;;10.24;92.25;101493.06;104899;1254;139422;-66
2024/02/16 07:00:41;;;;;;;56.50;42.60;;;;;;;10.26;92.20;101493.13;105003;1257;73042;-67
2024/02/16 07:03:08;;;;;;;58.40;40.60;;;;;;;10.29;92.27;101493.59;104965;1258;139068;-65
2024/02/16 07:05:35;;;;;;;58.50;42.50;;;;;;;10.34;92.22;101493.77;105541;1254;61736;-66
2024/02/16 07:08:02;;;;;;;59.60;46.90;;;;;;;10.36;92.14;101494.39;105163;1257;75132;-66
2024/02/16 07:10:29;;;;;;;58.80;44.20;;;;;;;10.33;91.98;101489.18;105091;1259;139003;-65
2024/02/16 07:12:55;;;;;;;56.00;42.30;;;;;;;10.41;92.14;101498.42;105034;1259;74161;-66
2024/02/16 07:15:22;;;;;;;56.20;42.00;;;;;;;10.47;92.29;101500.27;104996;1256;139101;-67
2024/02/16 07:17:49;;;;;;;57.40;39.70;;;;;;;10.52;92.16;101501.67;105179;1257;61346;-67
2024/02/16 07:20:16;;;;;;;53.30;40.90;;;;;;;10.56;92.18;101502.50;105190;1256;73460;-67
2024/02/16 07:22:43;;;;;;;67.70;52.60;;;;;;;10.61;92.09;101498.67;105085;1259;139420;-66
2024/02/16 07:25:12;;;;;;;58.50;44.90;;;;;;;10.61;91.85;101499.02;105931;1257;71616;-65
2024/02/16 07:27:39;;;;;;;58.30;41.50;;;;;;;10.65;91.80;101502.15;109156;1256;139210;-65
2024/02/16 07:30:06;;;;;;;49.60;38.20;;;;;;;10.69;91.78;101507.06;109254;1254;59147;-66
2024/02/16 07:32:33;;;;;;;56.70;39.80;;;;;;;10.74;91.77;101506.52;105752;1257;74432;-65
2024/02/16 07:34:59;;;;;;;54.30;39.20;;;;;;;10.78;91.57;101508.44;105087;1258;139241;-66
2024/02/16 07:37:26;;;;;;;50.60;37.50;;;;;;;10.80;91.49;101507.45;105140;1258;72289;-69
2024/02/16 07:39:53;;;;;;;50.40;40.20;;;;;;;10.84;91.49;101499.30;105066;1254;138902;-66
2024/02/16 07:42:20;;;;;;;51.00;37.50;;;;;;;10.89;91.44;101498.45;105118;1259;61253;-65
2024/02/16 07:44:47;;;;;;;45.90;37.00;;;;;;;10.97;91.47;101499.77;105220;1259;75010;-65
2024/02/16 07:47:14;;;;;;;51.80;37.20;;;;;;;11.02;91.26;101498.04;106621;1259;139333;-65
2024/02/16 07:49:40;;;;;;;49.20;37.50;;;;;;;11.05;90.89;101499.00;105200;1259;72543;-65
2024/02/16 07:52:08;;;;;;;51.00;37.60;;;;;;;11.07;90.84;101497.52;105092;1257;139501;-66
2024/02/16 07:54:36;;;;;;;47.00;36.00;;;;;;;11.08;90.65;101495.77;105155;1259;62576;-66
2024/02/16 07:57:04;;;;;;;46.60;35.30;;;;;;;11.11;90.75;101490.08;105033;1257;139398;-65
2024/02/16 07:59:30;;;;;;;45.70;34.20;;;;;;;11.14;90.62;101486.68;105777;1257;64809;-66
2024/02/16 08:01:58;;;;;;;50.50;35.80;;;;;;;11.16;90.51;101483.41;105547;1254;73134;-66
2024/02/16 08:04:25;;;;;;;47.60;36.30;;;;;;;11.18;90.34;101486.29;105016;1254;138880;-66
2024/02/16 08:06:51;;;;;;;44.20;32.20;;;;;;;11.19;90.25;101481.93;105176;1254;61273;-66
2024/02/16 08:09:18;;;;;;;47.10;35.40;;;;;;;11.22;90.19;101480.96;105055;1257;140029;-66
2024/02/16 08:11:45;;;;;;;47.80;33.50;;;;;;;11.24;90.04;101478.79;105223;1257;66821;-66
2024/02/16 08:14:11;;;;;;;46.40;34.10;;;;;;;11.29;90.01;101472.59;105186;1257;72280;-66
2024/02/16 08:16:38;;;;;;;43.90;33.10;;;;;;;11.34;89.97;101470.81;105090;1256;139492;-65
2024/02/16 08:19:05;;;;;;;44.60;32.90;;;;;;;11.40;89.97;101469.98;105201;1254;61244;-66
2024/02/16 08:21:32;;;;;;;43.90;31.30;;;;;;;11.47;89.86;101466.70;106201;1258;139528;-66
2024/02/16 08:23:59;;;;;;;45.20;33.40;;;;;;;11.53;89.64;101461.63;105209;1260;67977;-66
2024/02/16 08:26:26;;;;;;;43.10;32.50;;;;;;;11.60;89.50;101460.08;105192;1257;74151;-66
2024/02/16 08:28:53;;;;;;;42.70;32.80;;;;;;;11.66;89.31;101459.22;105079;1255;138749;-66
2024/02/16 08:31:20;;;;;;;44.10;32.90;;;;;;;11.71;89.11;101464.46;105374;1260;61398;-66
2024/02/16 08:33:46;;;;;;;41.10;31.60;;;;;;;11.77;89.05;101463.09;105121;1257;139329;-66
2024/02/16 08:36:14;;;;;;;40.80;32.40;;;;;;;11.78;88.68;101462.92;105293;1258;66854;-66
2024/02/16 08:38:41;;;;;;;41.90;31.80;;;;;;;11.81;88.52;101467.45;105249;1258;73141;-66
2024/02/16 08:41:07;;;;;;;41.70;31.60;;;;;;;11.83;88.42;101465.41;105151;1256;139113;-66
2024/02/16 08:43:34;;;;;;;40.00;31.00;;;;;;;11.87;88.28;101466.05;105213;1259;61275;-59
2024/02/16 08:46:01;;;;;;;43.40;31.80;;;;;;;11.90;88.39;101468.80;105057;1255;139289;-58
2024/02/16 08:48:28;;;;;;;41.80;31.10;;;;;;;11.95;88.15;101466.50;105294;1259;65644;-60
2024/02/16 08:50:54;;;;;;;42.60;30.50;;;;;;;11.96;87.92;101464.60;105017;1257;139073;-58
2024/02/16 08:53:21;;;;;;;41.00;29.90;;;;;;;12.02;87.93;101464.92;105093;1258;61395;-60
2024/02/16 08:55:48;;;;;;;37.80;29.90;;;;;;;12.06;87.80;101467.70;105124;1258;61340;-59
2024/02/16 08:58:15;;;;;;;39.80;30.90;;;;;;;12.10;87.69;101466.42;105007;1256;138636;-58
2024/02/16 09:00:41;;;;;;;42.40;31.60;;;;;;;12.11;87.36;101462.07;105204;1259;66720;-58
2024/02/16 09:03:08;;;;;;;37.70;30.60;;;;;;;12.12;87.24;101460.33;105067;1260;138620;-58
2024/02/16 09:05:36;;;;;;;40.40;31.60;;;;;;;12.17;87.31;101457.29;107990;1258;61294;-58
2024/02/16 09:08:05;;;;;;;40.20;29.70;;;;;;;12.23;87.21;101455.73;105127;1257;61183;-58
2024/02/16 09:10:32;;;;;;;35.70;28.20;;;;;;;12.29;87.04;101458.17;105090;1260;138892;-57
2024/02/16 09:12:58;;;;;;;37.70;28.80;;;;;;;12.33;86.72;101454.08;105236;1259;65731;-61
2024/02/16 09:15:26;;;;;;;39.70;30.50;;;;;;;12.37;86.71;101453.14;105236;1259;139564;-66
2024/02/16 09:17:53;;;;;;;36.80;29.00;;;;;;;12.43;86.74;101453.13;105212;1255;59748;-66
2024/02/16 09:20:22;;;;;;;36.10;28.90;;;;;;;12.53;86.58;101447.80;105104;1260;61240;-65
2024/02/16 09:22:48;;;;;;;39.10;29.40;;;;;;;12.62;86.45;101447.52;105090;1255;138766;-59
2024/02/16 09:25:15;;;;;;;33.80;26.80;;;;;;;12.70;86.23;101445.59;105079;1259;189830;-66
2024/02/16 09:27:44;;;;;;;35.70;27.70;;;;;;;12.73;85.96;101439.18;105074;1254;138257;-59
2024/02/16 09:30:12;;;;;;;39.70;30.20;;;;;;;12.76;85.76;101439.80;105391;1259;61282;-59
2024/02/16 09:32:40;;;;;;;37.50;29.00;;;;;;;12.75;85.51;101438.54;105171;1259;61345;-60
2024/02/16 09:35:06;;;;;;;35.00;27.50;;;;;;;12.74;85.30;101438.67;105032;1257;138816;-59
2024/02/16 09:37:35;;;;;;;36.20;27.00;;;;;;;12.70;85.17;101438.57;105115;1259;65978;-60
2024/02/16 09:40:04;;;;;;;32.90;26.60;;;;;;;12.72;85.20;101438.80;105388;1259;139153;-58
2024/02/16 09:42:30;;;;;;;29.20;24.80;;;;;;;12.76;85.24;101440.50;106571;1259;61259;-58
2024/02/16 09:44:57;;;;;;;31.10;26.20;;;;;;;12.80;85.09;101440.24;104786;1262;139247;-58
2024/02/16 09:47:25;;;;;;;28.70;24.50;;;;;;;12.78;84.74;101436.48;105268;1254;74131;-66
2024/02/16 09:49:52;;;;;;;31.10;26.00;;;;;;;12.83;85.03;101434.33;105239;1259;66885;-66
2024/02/16 09:52:19;;;;;;;31.40;24.80;;;;;;;12.91;84.93;101434.55;105043;1257;138116;-66
2024/02/16 09:54:45;;;;;;;32.90;25.70;;;;;;;12.91;84.74;101429.08;105144;1260;61270;-67
2024/02/16 09:57:16;;;;;;;29.80;25.50;;;;;;;12.91;84.63;101424.34;109165;1254;138664;-66
2024/02/16 09:59:43;;;;;;;32.50;26.20;;;;;;;12.89;84.58;101424.97;106009;1254;74501;-66
2024/02/16 10:02:10;;;;;;;33.60;24.90;;;;;;;12.87;84.48;101426.86;105011;1260;65807;-65
2024/02/16 10:04:37;;;;;;;32.60;25.00;;;;;;;12.84;84.47;101423.09;105052;1254;138905;-66
2024/02/16 10:07:05;;;;;;;32.40;24.70;;;;;;;12.78;84.39;101424.35;105098;1259;61260;-66
2024/02/16 10:09:32;;;;;;;29.50;23.90;;;;;;;12.76;84.36;101418.48;107447;1259;139595;-65
2024/02/16 10:12:00;;;;;;;32.20;24.50;;;;;;;12.76;84.47;101414.76;105163;1255;75419;-66
2024/02/16 10:14:28;;;;;;;30.80;23.40;;;;;;;12.78;84.57;101413.78;105126;1259;67572;-67
2024/02/16 10:17:06;;;;;;;35.10;23.70;;;;;;;12.82;84.69;101407.90;105042;1259;138864;-66
2024/02/16 10:19:41;;;;;;;29.40;22.10;;;;;;;12.86;84.58;101405.89;109286;1254;60148;-66
2024/02/16 10:22:11;;;;;;;26.00;20.00;;;;;;;12.93;84.70;101404.64;109162;1254;139236;-66
2024/02/16 10:24:39;;;;;;;29.90;21.50;;;;;;;12.93;84.29;101398.14;109186;1254;73868;-66
2024/02/16 10:27:10;;;;;;;25.50;19.70;;;;;;;12.90;84.19;101393.81;107189;1258;138381;-66
2024/02/16 10:29:37;;;;;;;26.10;19.20;;;;;;;12.90;84.04;101394.02;104961;1260;73111;-66
2024/02/16 10:32:04;;;;;;;25.80;18.80;;;;;;;12.93;84.04;101393.55;104928;1257;59714;-66
2024/02/16 10:34:30;;;;;;;35.20;21.10;;;;;;;12.93;84.01;101390.03;109168;1254;138687;-67
2024/02/16 10:36:57;;;;;;;23.60;17.80;;;;;;;12.95;84.06;101387.26;105651;1257;74459;-65
2024/02/16 10:39:24;;;;;;;48.80;28.70;;;;;;;12.99;84.09;101387.73;104832;1259;140433;-68
2024/02/16 10:41:51;;;;;;;64.90;33.90;;;;;;;13.06;84.15;101385.60;105075;1260;73068;-66
2024/02/16 10:44:18;;;;;;;29.00;19.90;;;;;;;13.12;84.06;101374.80;105007;1259;61368;-66
2024/02/16 10:46:44;;;;;;;23.90;16.80;;;;;;;13.13;83.71;101369.55;105074;1259;139178;-65
2024/02/16 10:49:11;;;;;;;21.30;15.30;;;;;;;13.14;83.67;101362.88;105138;1259;75838;-59
2024/02/16 10:51:49;;;;;;;22.00;15.80;;;;;;;13.18;83.66;101362.11;104988;1263;138993;-60
2024/02/16 10:54:18;;;;;;;22.50;17.60;;;;;;;13.26;83.75;101363.88;106415;1254;72294;-58
2024/02/16 10:56:45;;;;;;;19.50;14.70;;;;;;;13.34;83.70;101362.71;105188;1255;61606;-59
2024/02/16 10:59:12;;;;;;;20.50;14.90;;;;;;;13.43;83.73;101355.51;105107;1254;138464;-58